^^
Station Historical Data
Daily Summary for April 21, 2021 Units:  English    Metric   Both
Daily Weekly Monthly Yearly
  High: Low: Average:
Temperature: 39.7 °F 27.2 °F 32.9 °F
Dew Point: 27.6 °F 18.2 °F 21.1 °F
Humidity: 73% 42% 62%
Wind Speed: 9mph 0mph 4.7mph
Wind Gust: 15mph - -
Wind- - West
Pressure: 30.05 in 29.98 in -
Precipitation: 0.00 in    
 
 
Tabular Data for April 21, 2021
Time Temperature Dew Point Pressure Wind Wind Speed Wind Gust Humidity Rainfall Rate (Hourly) solar
00:10 34.5 °F 26.4 °F 30.02 in NE 3 mph 4 mph 72% 0.00 in 0 W/m2
00:15 34.5 °F 26.4 °F 30.02 in ENE 3 mph 4 mph 72% 0.00 in 0 W/m2
00:20 34.5 °F 26.4 °F 30.02 in NE 3 mph 3 mph 72% 0.00 in 0 W/m2
00:25 34.5 °F 26.4 °F 30.02 in NE 3 mph 3 mph 72% 0.00 in 0 W/m2
00:35 34.5 °F 26.7 °F 30.02 in NE 3 mph 4 mph 73% 0.00 in 0 W/m2
00:40 34.4 °F 26.6 °F 30.02 in North 3 mph 3 mph 73% 0.00 in 0 W/m2
00:45 34.3 °F 24.5 °F 30.02 in NNW 4 mph 4 mph 67% 0.00 in 0 W/m2
00:50 34.3 °F 23.7 °F 30.02 in WNW 4 mph 5 mph 65% 0.00 in 0 W/m2
00:55 34.2 °F 23.3 °F 30.02 in WNW 4 mph 5 mph 64% 0.00 in 0 W/m2
01:00 34.2 °F 22.5 °F 30.02 in NW 4 mph 4 mph 62% 0.00 in 0 W/m2
01:05 34.2 °F 22.1 °F 30.02 in NW 3 mph 8 mph 61% 0.00 in 0 W/m2
01:10 34.3 °F 23 °F 30.02 in NW 4 mph 5 mph 63% 0.00 in 0 W/m2
01:15 34.2 °F 22.5 °F 30.02 in NNW 4 mph 5 mph 62% 0.00 in 0 W/m2
01:25 34.1 °F 22.4 °F 30.02 in NNW 5 mph 5 mph 62% 0.00 in 0 W/m2
01:30 33.9 °F 22.2 °F 30.02 in NNE 5 mph 5 mph 62% 0.00 in 0 W/m2
01:35 33.9 °F 22.6 °F 30.02 in NW 4 mph 5 mph 63% 0.00 in 0 W/m2
01:40 33.7 °F 21.3 °F 30.02 in NW 5 mph 6 mph 60% 0.00 in 0 W/m2
01:45 33.6 °F 21.6 °F 30.02 in NNW 5 mph 6 mph 61% 0.00 in 0 W/m2
01:50 33.4 °F 21.8 °F 30.02 in NW 5 mph 5 mph 62% 0.00 in 0 W/m2
01:55 33.3 °F 21.7 °F 30.02 in NW 4 mph 5 mph 62% 0.00 in 0 W/m2
02:00 33.1 °F 21.5 °F 30.02 in NNW 5 mph 5 mph 62% 0.00 in 0 W/m2
02:05 32.9 °F 21.3 °F 30.02 in NW 5 mph 6 mph 62% 0.00 in 0 W/m2
02:10 32.7 °F 21.1 °F 30.02 in NNW 5 mph 5 mph 62% 0.00 in 0 W/m2
02:15 32.6 °F 21.4 °F 30.02 in NNW 5 mph 10 mph 63% 0.00 in 0 W/m2
02:20 32.5 °F 21.7 °F 30.02 in West 5 mph 7 mph 64% 0.00 in 0 W/m2
02:25 32.4 °F 21.6 °F 30.02 in NNW 5 mph 7 mph 64% 0.00 in 0 W/m2
02:30 32.2 °F 20.6 °F 30.02 in NNE 4 mph 5 mph 62% 0.00 in 0 W/m2
02:55 31.9 °F 20.7 °F 30.01 in NNW 5 mph 5 mph 63% 0.00 in 0 W/m2
03:00 31.8 °F 21.4 °F 30.01 in NW 5 mph 9 mph 65% 0.00 in 0 W/m2
03:05 31.7 °F 21.6 °F 30.02 in NW 4 mph 9 mph 66% 0.00 in 0 W/m2
03:10 31.7 °F 22 °F 30.01 in NW 4 mph 4 mph 67% 0.00 in 0 W/m2
03:15 31.5 °F 21.4 °F 30.01 in NW 4 mph 4 mph 66% 0.00 in 0 W/m2
03:20 31.4 °F 21 °F 30.02 in NW 5 mph 5 mph 65% 0.00 in 0 W/m2
03:25 31.2 °F 21.2 °F 30.02 in NNE 5 mph 5 mph 66% 0.00 in 0 W/m2
03:30 31.1 °F 20.7 °F 30.01 in NNE 4 mph 4 mph 65% 0.00 in 0 W/m2
03:35 30.9 °F 20.5 °F 30.01 in NW 6 mph 8 mph 65% 0.00 in 0 W/m2
03:40 30.7 °F 20.3 °F 30.01 in NNW 6 mph 6 mph 65% 0.00 in 0 W/m2
03:45 30.6 °F 20.6 °F 30.01 in North 4 mph 6 mph 66% 0.00 in 0 W/m2
03:55 30.4 °F 20.7 °F 30.01 in NW 5 mph 5 mph 67% 0.00 in 0 W/m2
04:00 30.3 °F 20.6 °F 30.01 in NNW 4 mph 6 mph 67% 0.00 in 0 W/m2
04:05 30.1 °F 20.5 °F 30.01 in NNW 4 mph 6 mph 67% 0.00 in 0 W/m2
04:10 30 °F 20 °F 30.01 in NW 5 mph 5 mph 66% 0.00 in 0 W/m2
04:15 29.8 °F 19.8 °F 30.01 in NNW 5 mph 5 mph 66% 0.00 in 0 W/m2
04:20 29.8 °F 19.8 °F 30.01 in NNW 5 mph 5 mph 66% 0.00 in 0 W/m2
04:25 29.8 °F 20.5 °F 30.01 in North 5 mph 5 mph 68% 0.00 in 0 W/m2
04:40 29.6 °F 20.7 °F 30.02 in North 3 mph 5 mph 69% 0.00 in 0 W/m2
04:45 29.6 °F 20.7 °F 30.02 in NNW 4 mph 6 mph 69% 0.00 in 0 W/m2
04:50 29.5 °F 20.6 °F 30.02 in North 5 mph 5 mph 69% 0.00 in 0 W/m2
04:55 29.3 °F 20.7 °F 30.02 in NW 5 mph 9 mph 70% 0.00 in 0 W/m2
05:00 29.2 °F 20.6 °F 30.02 in North 5 mph 5 mph 70% 0.00 in 0 W/m2
05:05 29.1 °F 20.5 °F 30.02 in WNW 5 mph 5 mph 70% 0.00 in 0 W/m2
05:15 29 °F 20.4 °F 30.02 in WNW 5 mph 9 mph 70% 0.00 in 0 W/m2
05:20 28.9 °F 20.3 °F 30.02 in NNW 5 mph 9 mph 70% 0.00 in 0 W/m2
05:25 28.9 °F 20.7 °F 30.02 in NNW 4 mph 8 mph 71% 0.00 in 0 W/m2
05:30 28.8 °F 20.2 °F 30.02 in NW 5 mph 8 mph 70% 0.00 in 0 W/m2
05:35 28.6 °F 19.7 °F 30.02 in NNW 6 mph 9 mph 69% 0.00 in 0 W/m2
05:40 28.5 °F 20 °F 30.02 in North 6 mph 9 mph 70% 0.00 in 0 W/m2
05:45 28.4 °F 20.2 °F 30.02 in NNW 5 mph 5 mph 71% 0.00 in 0 W/m2
05:50 28.3 °F 20.1 °F 30.02 in WNW 5 mph 7 mph 71% 0.00 in 0 W/m2
05:55 28.2 °F 19.7 °F 30.02 in WNW 5 mph 5 mph 70% 0.00 in 0 W/m2
06:00 28.1 °F 19.9 °F 30.02 in West 5 mph 5 mph 71% 0.00 in 0 W/m2
06:05 28.1 °F 19.9 °F 30.02 in NNW 5 mph 6 mph 71% 0.00 in 0 W/m2
06:15 27.8 °F 19.6 °F 30.02 in WNW 5 mph 5 mph 71% 0.00 in 0 W/m2
06:20 27.7 °F 19.2 °F 30.02 in NW 5 mph 5 mph 70% 0.00 in 0 W/m2
06:25 27.6 °F 19.1 °F 30.02 in North 5 mph 5 mph 70% 0.00 in 0 W/m2
06:30 27.5 °F 19 °F 30.02 in NNW 5 mph 5 mph 70% 0.00 in 0 W/m2
06:35 27.4 °F 18.9 °F 30.02 in NNW 5 mph 5 mph 70% 0.00 in 0 W/m2
06:40 27.4 °F 19.2 °F 30.02 in NW 5 mph 5 mph 71% 0.00 in 0 W/m2
06:45 27.4 °F 18.9 °F 30.02 in North 4 mph 8 mph 70% 0.00 in 0 W/m2
06:50 27.3 °F 18.8 °F 30.02 in NNW 4 mph 8 mph 70% 0.00 in 5 W/m2
06:55 27.3 °F 18.8 °F 30.03 in NNW 5 mph 5 mph 70% 0.00 in 7 W/m2
07:00 27.2 °F 19 °F 30.03 in WNW 5 mph 11 mph 71% 0.00 in 7 W/m2
07:05 27.2 °F 18.7 °F 30.03 in NW 6 mph 11 mph 70% 0.00 in 11 W/m2
07:10 27.3 °F 19.1 °F 30.03 in NW 5 mph 6 mph 71% 0.00 in 14 W/m2
07:21 27.3 °F 19.1 °F 30.03 in NNW 5 mph 5 mph 71% 0.00 in 26 W/m2
07:30 27.4 °F 18.9 °F 30.03 in NW 5 mph 6 mph 70% 0.00 in 30 W/m2
07:35 27.4 °F 18.9 °F 30.04 in North 4 mph 5 mph 70% 0.00 in 33 W/m2
07:45 27.4 °F 19.2 °F 30.03 in WNW 6 mph 6 mph 71% 0.00 in 47 W/m2
07:55 27.4 °F 18.9 °F 30.04 in NW 6 mph 6 mph 70% 0.00 in 53 W/m2
08:10 27.6 °F 19.1 °F 30.04 in WNW 7 mph 13 mph 70% 0.00 in 74 W/m2
08:15 27.8 °F 19.3 °F 30.03 in NNW 8 mph 13 mph 70% 0.00 in 91 W/m2
08:20 27.9 °F 19 °F 30.04 in NNW 8 mph 8 mph 69% 0.00 in 105 W/m2
08:25 28.1 °F 19.2 °F 30.04 in NW 7 mph 14 mph 69% 0.00 in 120 W/m2
08:30 28.1 °F 19.2 °F 30.04 in WNW 7 mph 7 mph 69% 0.00 in 123 W/m2
08:35 28.3 °F 19.4 °F 30.04 in NNW 7 mph 8 mph 69% 0.00 in 132 W/m2
08:40 28.4 °F 19.5 °F 30.03 in NE 8 mph 8 mph 69% 0.00 in 142 W/m2
08:45 28.5 °F 19.6 °F 30.04 in WNW 7 mph 15 mph 69% 0.00 in 167 W/m2
08:50 28.7 °F 19.8 °F 30.04 in NNW 6 mph 6 mph 69% 0.00 in 185 W/m2
08:55 28.8 °F 19.9 °F 30.03 in NNW 7 mph 8 mph 69% 0.00 in 202 W/m2
09:00 28.9 °F 19.7 °F 30.03 in NNW 8 mph 13 mph 68% 0.00 in 306 W/m2
09:05 29 °F 19.8 °F 30.03 in NW 9 mph 13 mph 68% 0.00 in 287 W/m2
09:15 29.3 °F 20 °F 30.04 in NW 8 mph 8 mph 68% 0.00 in 311 W/m2
09:20 29.5 °F 20.2 °F 30.04 in NW 8 mph 11 mph 68% 0.00 in 248 W/m2
09:25 29.3 °F 19.3 °F 30.03 in NW 8 mph 8 mph 66% 0.00 in 258 W/m2
09:30 29.5 °F 19.5 °F 30.04 in NW 8 mph 8 mph 66% 0.00 in 267 W/m2
09:35 29.8 °F 20.2 °F 30.04 in NNW 7 mph 9 mph 67% 0.00 in 264 W/m2
09:40 30 °F 20.4 °F 30.03 in NNW 8 mph 10 mph 67% 0.00 in 283 W/m2
09:45 30 °F 20 °F 30.04 in WNW 9 mph 9 mph 66% 0.00 in 244 W/m2
09:50 30 °F 20 °F 30.04 in NNW 8 mph 9 mph 66% 0.00 in 329 W/m2
09:55 30.2 °F 19.8 °F 30.04 in NNW 8 mph 8 mph 65% 0.00 in 448 W/m2
10:00 30.1 °F 19.4 °F 30.04 in NW 8 mph 11 mph 64% 0.00 in 343 W/m2
10:05 30.9 °F 19.8 °F 30.04 in NNW 8 mph 11 mph 63% 0.00 in 666 W/m2
10:10 30.7 °F 19.2 °F 30.04 in NW 9 mph 12 mph 62% 0.00 in 615 W/m2
10:15 31.3 °F 20.2 °F 30.04 in WSW 8 mph 12 mph 63% 0.00 in 594 W/m2
10:20 31.9 °F 20.7 °F 30.04 in NNW 6 mph 6 mph 63% 0.00 in 624 W/m2
10:25 31.7 °F 19.8 °F 30.04 in NE 6 mph 7 mph 61% 0.00 in 636 W/m2
10:30 32.1 °F 20.2 °F 30.04 in NW 7 mph 8 mph 61% 0.00 in 568 W/m2
10:35 32.6 °F 20.2 °F 30.04 in NNW 6 mph 8 mph 60% 0.00 in 633 W/m2
10:40 32.5 °F 20.1 °F 30.04 in NW 5 mph 8 mph 60% 0.00 in 679 W/m2
10:45 32.1 °F 20.2 °F 30.04 in WNW 6 mph 8 mph 61% 0.00 in 700 W/m2
10:55 31.9 °F 20.3 °F 30.05 in NW 7 mph 7 mph 62% 0.00 in 701 W/m2
11:00 33 °F 21.4 °F 30.05 in NNW 6 mph 6 mph 62% 0.00 in 650 W/m2
11:05 34 °F 21.6 °F 30.05 in NW 5 mph 6 mph 60% 0.00 in 489 W/m2
11:10 33.3 °F 20.1 °F 30.05 in NW 5 mph 5 mph 58% 0.00 in 865 W/m2
11:15 33.4 °F 19.8 °F 30.05 in NW 6 mph 7 mph 57% 0.00 in 504 W/m2
11:20 33.3 °F 20.1 °F 30.05 in West 6 mph 6 mph 58% 0.00 in 448 W/m2
11:25 33.1 °F 20.3 °F 30.05 in NW 6 mph 8 mph 59% 0.00 in 466 W/m2
11:35 34 °F 20.3 °F 30.05 in NW 6 mph 8 mph 57% 0.00 in 387 W/m2
11:40 33.3 °F 19.7 °F 30.05 in NNW 6 mph 10 mph 57% 0.00 in 417 W/m2
11:45 33.2 °F 19.6 °F 30.05 in NNW 6 mph 10 mph 57% 0.00 in 369 W/m2
11:55 33 °F 20.2 °F 30.05 in WNW 7 mph 9 mph 59% 0.00 in 429 W/m2
12:05 33.4 °F 18.9 °F 30.04 in WNW 5 mph 6 mph 55% 0.00 in 482 W/m2
12:10 33.6 °F 19.6 °F 30.05 in NW 6 mph 6 mph 56% 0.00 in 520 W/m2
12:15 34.1 °F 19.6 °F 30.05 in North 6 mph 6 mph 55% 0.00 in 438 W/m2
12:20 34.1 °F 19.6 °F 30.05 in NNW 5 mph 5 mph 55% 0.00 in 396 W/m2
12:25 34.1 °F 20 °F 30.04 in NW 6 mph 6 mph 56% 0.00 in 455 W/m2
12:31 34.5 °F 20.4 °F 30.04 in NNW 6 mph 6 mph 56% 0.00 in 496 W/m2
12:35 34.6 °F 20.5 °F 30.04 in West 5 mph 9 mph 56% 0.00 in 517 W/m2
12:40 34.7 °F 19.7 °F 30.04 in NW 6 mph 9 mph 54% 0.00 in 482 W/m2
12:45 34.4 °F 18.6 °F 30.04 in NW 7 mph 7 mph 52% 0.00 in 543 W/m2
12:50 34.6 °F 19.6 °F 30.04 in NW 6 mph 7 mph 54% 0.00 in 647 W/m2
12:55 35.3 °F 20.3 °F 30.04 in West 6 mph 7 mph 54% 0.00 in 770 W/m2
13:00 36.1 °F 20.6 °F 30.04 in NW 6 mph 6 mph 53% 0.00 in 534 W/m2
13:05 35.4 °F 19.5 °F 30.04 in WNW 6 mph 10 mph 52% 0.00 in 540 W/m2
13:10 34.8 °F 18.9 °F 30.04 in West 7 mph 7 mph 52% 0.00 in 617 W/m2
13:15 35.3 °F 19.4 °F 30.04 in NW 7 mph 7 mph 52% 0.00 in 339 W/m2
13:20 35.5 °F 20.9 °F 30.04 in NW 7 mph 7 mph 55% 0.00 in 680 W/m2
13:25 36 °F 19.6 °F 30.03 in NW 7 mph 7 mph 51% 0.00 in 617 W/m2
13:35 36.2 °F 20.7 °F 30.03 in SW 7 mph 7 mph 53% 0.00 in 490 W/m2
13:40 36.1 °F 19.2 °F 30.03 in NW 7 mph 8 mph 50% 0.00 in 534 W/m2
13:45 35.2 °F 19.8 °F 30.03 in West 6 mph 6 mph 53% 0.00 in 584 W/m2
13:50 36.2 °F 19.3 °F 30.03 in NNW 5 mph 6 mph 50% 0.00 in 487 W/m2
13:55 35.6 °F 20.6 °F 30.03 in NW 5 mph 5 mph 54% 0.00 in 494 W/m2
14:00 36.5 °F 20.5 °F 30.03 in West 6 mph 8 mph 52% 0.00 in 439 W/m2
14:05 36.4 °F 20.4 °F 30.03 in NW 6 mph 8 mph 52% 0.00 in 371 W/m2
14:15 35.7 °F 19.8 °F 30.02 in NW 8 mph 12 mph 52% 0.00 in 856 W/m2
14:20 37.3 °F 22.2 °F 30.02 in NNW 7 mph 8 mph 54% 0.00 in 656 W/m2
14:30 38 °F 20.5 °F 30.02 in NW 6 mph 6 mph 49% 0.00 in 473 W/m2
14:40 36 °F 20.1 °F 30.02 in NW 7 mph 7 mph 52% 0.00 in 371 W/m2
14:45 36.4 °F 20.4 °F 30.02 in NW 7 mph 10 mph 52% 0.00 in 374 W/m2
14:55 37.4 °F 21.8 °F 30.02 in North 6 mph 6 mph 53% 0.00 in 1032 W/m2
15:05 37.1 °F 20.2 °F 30.02 in WSW 5 mph 7 mph 50% 0.00 in 408 W/m2
15:10 36.7 °F 19.8 °F 30.02 in NW 5 mph 5 mph 50% 0.00 in 408 W/m2
15:15 37 °F 20.5 °F 30.02 in WNW 5 mph 7 mph 51% 0.00 in 417 W/m2
15:25 38.1 °F 20.6 °F 30.01 in NW 5 mph 5 mph 49% 0.00 in 501 W/m2
15:40 38.4 °F 20.4 °F 30.01 in West 6 mph 8 mph 48% 0.00 in 431 W/m2
15:50 37.7 °F 19.3 °F 30.01 in West 5 mph 5 mph 47% 0.00 in 478 W/m2
15:55 38.6 °F 21.1 °F 30.01 in WNW 4 mph 5 mph 49% 0.00 in 415 W/m2
16:00 38.6 °F 20.1 °F 30.00 in West 4 mph 7 mph 47% 0.00 in 396 W/m2
16:05 38.2 °F 20.2 °F 30.00 in West 4 mph 7 mph 48% 0.00 in 540 W/m2
16:10 38.1 °F 20.6 °F 30.00 in WNW 3 mph 3 mph 49% 0.00 in 388 W/m2
16:20 39.4 °F 21.3 °F 29.99 in NW 3 mph 3 mph 48% 0.00 in 450 W/m2
16:25 39.2 °F 21.1 °F 29.99 in WNW 3 mph 5 mph 48% 0.00 in 343 W/m2
16:30 39.2 °F 21.6 °F 29.99 in NNW 3 mph 3 mph 49% 0.00 in 378 W/m2
16:35 39.4 °F 20.8 °F 29.99 in SW 4 mph 4 mph 47% 0.00 in 330 W/m2
16:40 39.3 °F 20.2 °F 29.99 in West 4 mph 4 mph 46% 0.00 in 279 W/m2
16:45 38.6 °F 22.5 °F 29.99 in West 3 mph 4 mph 52% 0.00 in 309 W/m2
16:50 38.5 °F 21.9 °F 29.99 in West 2 mph 3 mph 51% 0.00 in 272 W/m2
16:55 39.4 °F 24.1 °F 29.99 in WSW 3 mph 4 mph 54% 0.00 in 230 W/m2
17:00 39.5 °F 20.9 °F 29.98 in WSW 4 mph 4 mph 47% 0.00 in 232 W/m2
17:05 38.9 °F 18.8 °F 29.98 in WNW 4 mph 4 mph 44% 0.00 in 229 W/m2
17:10 38.9 °F 18.8 °F 29.98 in WNW 5 mph 5 mph 44% 0.00 in 216 W/m2
17:15 39.5 °F 20.4 °F 29.98 in NW 5 mph 5 mph 46% 0.00 in 239 W/m2
17:20 39.4 °F 18.2 °F 29.98 in West 6 mph 6 mph 42% 0.00 in 239 W/m2
17:25 39.4 °F 19.8 °F 29.98 in WNW 7 mph 7 mph 45% 0.00 in 265 W/m2
17:30 39.6 °F 18.4 °F 29.98 in NW 6 mph 13 mph 42% 0.00 in 281 W/m2
17:35 39.5 °F 18.3 °F 29.98 in NW 7 mph 13 mph 42% 0.00 in 214 W/m2
17:40 39.5 °F 18.8 °F 29.98 in West 7 mph 11 mph 43% 0.00 in 229 W/m2
17:45 39.4 °F 18.2 °F 29.98 in North 7 mph 11 mph 42% 0.00 in 206 W/m2
17:50 39.4 °F 18.2 °F 29.98 in West 7 mph 7 mph 42% 0.00 in 200 W/m2
17:55 39.6 °F 18.4 °F 29.98 in WNW 6 mph 7 mph 42% 0.00 in 220 W/m2
18:10 39.7 °F 22.1 °F 29.98 in NNW 5 mph 5 mph 49% 0.00 in 178 W/m2
18:20 38.7 °F 23 °F 29.98 in NNE 4 mph 4 mph 53% 0.00 in 163 W/m2
18:25 38.6 °F 24.7 °F 29.99 in NNW 4 mph 4 mph 57% 0.00 in 230 W/m2
18:40 37.2 °F 27.6 °F 29.99 in NE 4 mph 10 mph 68% 0.00 in 144 W/m2
18:45 36.6 °F 27 °F 29.99 in ENE 5 mph 10 mph 68% 0.00 in 113 W/m2
18:50 36 °F 26.5 °F 29.99 in NNE 6 mph 8 mph 68% 0.00 in 98 W/m2
18:55 35.8 °F 26.3 °F 29.99 in East 5 mph 9 mph 68% 0.00 in 104 W/m2
19:00 35.7 °F 26.5 °F 30.00 in North 5 mph 5 mph 69% 0.00 in 114 W/m2
19:05 35.6 °F 26.4 °F 29.99 in NNE 5 mph 5 mph 69% 0.00 in 91 W/m2
19:15 35.4 °F 26.6 °F 30.00 in NE 5 mph 5 mph 70% 0.00 in 62 W/m2
19:45 34.3 °F 24.8 °F 30.00 in NE 4 mph 4 mph 68% 0.00 in 39 W/m2
19:50 34.3 °F 25.5 °F 30.00 in NE 3 mph 4 mph 70% 0.00 in 33 W/m2
19:55 34.2 °F 25.4 °F 30.00 in ENE 3 mph 3 mph 70% 0.00 in 25 W/m2
20:00 34.1 °F 25 °F 29.99 in ENE 3 mph 3 mph 69% 0.00 in 18 W/m2
20:05 33.8 °F 24.7 °F 30.00 in ENE 3 mph 4 mph 69% 0.00 in 14 W/m2
20:10 33.7 °F 24.6 °F 29.99 in NE 3 mph 4 mph 69% 0.00 in 12 W/m2
20:15 33.7 °F 24.6 °F 29.99 in North 3 mph 5 mph 69% 0.00 in 11 W/m2
20:20 33.6 °F 24.2 °F 29.99 in ESE 3 mph 3 mph 68% 0.00 in 7 W/m2
20:35 33.1 °F 23.3 °F 30.00 in ENE 2 mph 2 mph 67% 0.00 in 0 W/m2
20:40 33 °F 22.9 °F 29.99 in ESE 2 mph 4 mph 66% 0.00 in 0 W/m2
20:45 33 °F 22.5 °F 29.99 in ENE 3 mph 4 mph 65% 0.00 in 0 W/m2
20:55 33.1 °F 22.6 °F 30.00 in ENE 2 mph 3 mph 65% 0.00 in 0 W/m2
21:00 33.1 °F 22.2 °F 30.00 in East 3 mph 3 mph 64% 0.00 in 0 W/m2
21:05 33.1 °F 22.2 °F 30.00 in ENE 3 mph 3 mph 64% 0.00 in 0 W/m2
21:10 33.1 °F 22.6 °F 30.00 in ESE 2 mph 2 mph 65% 0.00 in 0 W/m2
21:15 33 °F 22.1 °F 30.00 in ESE 2 mph 2 mph 64% 0.00 in 0 W/m2
21:20 32.8 °F 22 °F 30.00 in ESE 2 mph 2 mph 64% 0.00 in 0 W/m2
21:25 32.8 °F 22.3 °F 30.00 in ESE 2 mph 2 mph 65% 0.00 in 0 W/m2
21:35 32.6 °F 22.1 °F 30.00 in Calm   1 mph 65% 0.00 in 0 W/m2
21:40 32.5 °F 22 °F 30.01 in Calm   2 mph 65% 0.00 in 0 W/m2
21:55 32.2 °F 22.1 °F 30.01 in ESE 1 mph 2 mph 66% 0.00 in 0 W/m2
22:00 32.1 °F 22.4 °F 30.01 in ESE 2 mph 2 mph 67% 0.00 in 0 W/m2
22:05 32 °F 21.9 °F 30.01 in ESE 1 mph 2 mph 66% 0.00 in 0 W/m2
22:10 32 °F 22.3 °F 30.01 in Calm     67% 0.00 in 0 W/m2
22:15 31.9 °F 22.2 °F 30.01 in Calm     67% 0.00 in 0 W/m2
22:20 31.8 °F 22.1 °F 30.01 in Calm     67% 0.00 in 0 W/m2
22:25 31.8 °F 22.8 °F 30.01 in Calm     69% 0.00 in 0 W/m2
22:30 31.9 °F 23.2 °F 30.01 in Calm     70% 0.00 in 0 W/m2
22:35 32.2 °F 23.8 °F 30.01 in ESE 1 mph 1 mph 71% 0.00 in 0 W/m2
22:40 32.3 °F 23.3 °F 30.01 in ESE 1 mph 1 mph 69% 0.00 in 0 W/m2
22:45 32.3 °F 23.3 °F 30.01 in Calm   1 mph 69% 0.00 in 0 W/m2
22:50 32.3 °F 23.3 °F 30.01 in Calm   1 mph 69% 0.00 in 0 W/m2
22:55 32.1 °F 22.7 °F 30.01 in ESE 1 mph 1 mph 68% 0.00 in 0 W/m2
23:00 32.1 °F 23.1 °F 30.01 in ESE 1 mph 1 mph 69% 0.00 in 0 W/m2
23:05 32 °F 23 °F 30.01 in Calm   1 mph 69% 0.00 in 0 W/m2
23:10 31.9 °F 23.2 °F 30.01 in Calm   2 mph 70% 0.00 in 0 W/m2
23:15 31.8 °F 23.1 °F 30.01 in ESE 1 mph 2 mph 70% 0.00 in 0 W/m2
23:20 31.8 °F 22.8 °F 30.01 in Calm     69% 0.00 in 0 W/m2
23:25 31.6 °F 22.6 °F 30.01 in Calm     69% 0.00 in 0 W/m2
23:30 31.7 °F 22 °F 30.01 in NW 1 mph 8 mph 67% 0.00 in 0 W/m2
23:35 31.8 °F 21 °F 30.01 in NW 3 mph 8 mph 64% 0.00 in 0 W/m2
23:40 31.9 °F 20.7 °F 30.01 in WNW 4 mph 4 mph 63% 0.00 in 0 W/m2
23:45 32.2 °F 20.2 °F 30.00 in NNW 4 mph 9 mph 61% 0.00 in 0 W/m2
23:50 32.6 °F 19.8 °F 30.00 in NW 5 mph 9 mph 59% 0.00 in 0 W/m2
23:55 32.8 °F 19.6 °F 30.01 in NNW 5 mph 9 mph 58% 0.00 in 0 W/m2
Sand Point, Michigan, USA
Compliments of Weather Underground - 2 mb